createdAt,value
2019-02-17T00:00:48.963Z,99164.78
2019-02-17T00:03:18.260Z,99161.82
2019-02-17T00:05:47.549Z,99165.86
2019-02-17T00:08:16.854Z,99158.31
2019-02-17T00:10:46.141Z,99161.52
2019-02-17T00:13:15.412Z,99156.13
2019-02-17T00:15:44.676Z,99164.75
2019-02-17T00:18:13.962Z,99164.22
2019-02-17T00:20:43.255Z,99160.22
2019-02-17T00:23:12.546Z,99160.76
2019-02-17T00:25:41.826Z,99161.03
2019-02-17T00:28:11.203Z,99152.39
2019-02-17T00:30:40.473Z,99155.10
2019-02-17T00:33:09.727Z,99148.08
2019-02-17T00:35:39.047Z,99143.26
2019-02-17T00:38:08.457Z,99141.34
2019-02-17T00:40:37.742Z,99149.17
2019-02-17T00:43:07.125Z,99141.09
2019-02-17T00:45:36.389Z,99141.64
2019-02-17T00:48:05.682Z,99140.80
2019-02-17T00:50:34.966Z,99136.48
2019-02-17T00:53:04.316Z,99141.06
2019-02-17T00:55:34.584Z,99137.58
2019-02-17T00:58:03.862Z,99138.13
2019-02-17T01:00:33.149Z,99130.30
2019-02-17T01:03:02.439Z,99133.02
2019-02-17T01:05:31.733Z,99128.67
2019-02-17T01:08:02.128Z,99132.16
2019-02-17T01:10:31.412Z,99135.68
2019-02-17T01:13:00.689Z,99130.30
2019-02-17T01:15:29.967Z,99139.45
2019-02-17T01:17:59.302Z,99141.59
2019-02-17T01:20:28.610Z,99135.95
2019-02-17T01:22:57.942Z,99142.15
2019-02-17T01:25:27.221Z,99135.12
2019-02-17T01:27:56.523Z,99135.07
2019-02-17T01:30:25.807Z,99139.70
2019-02-17T01:32:55.069Z,99142.13
2019-02-17T01:35:24.351Z,99145.91
2019-02-17T01:37:53.613Z,99141.88
2019-02-17T01:40:23.408Z,99139.45
2019-02-17T01:42:52.673Z,99134.58
2019-02-17T01:45:22.555Z,99134.05
2019-02-17T01:47:51.856Z,99130.55
2019-02-17T01:50:21.117Z,99130.22
2019-02-17T01:52:50.717Z,99130.52
2019-02-17T01:55:19.997Z,99131.59
2019-02-17T01:57:49.299Z,99133.52
2019-02-17T02:00:18.543Z,99135.16
2019-02-17T02:02:47.996Z,99133.52
2019-02-17T02:05:17.657Z,99133.25
2019-02-17T02:07:46.936Z,99140.27
2019-02-17T02:10:16.251Z,99129.77
2019-02-17T02:12:45.515Z,99130.55
2019-02-17T02:15:14.797Z,99125.96
2019-02-17T02:17:44.075Z,99120.05
2019-02-17T02:20:13.705Z,99120.03
2019-02-17T02:22:42.976Z,99117.24
2019-02-17T02:25:12.258Z,99115.93
2019-02-17T02:27:41.696Z,99115.05
2019-02-17T02:30:12.308Z,99115.13
2019-02-17T02:32:41.591Z,99116.44
2019-02-17T02:35:10.911Z,99114.24
2019-02-17T02:37:40.182Z,99113.74
2019-02-17T02:40:09.506Z,99111.56
2019-02-17T02:42:39.389Z,99110.14
2019-02-17T02:45:09.446Z,99112.62
2019-02-17T02:47:38.733Z,99111.56
2019-02-17T02:50:09.204Z,99116.09
2019-02-17T02:52:38.489Z,99111.49
2019-02-17T02:55:08.256Z,99111.30
2019-02-17T02:57:37.530Z,99111.59
2019-02-17T03:00:08.383Z,99116.13
2019-02-17T03:02:39.056Z,99104.29
2019-02-17T03:05:08.376Z,99107.77
2019-02-17T03:07:37.658Z,99112.27
2019-02-17T03:10:07.484Z,99110.69
2019-02-17T03:12:36.765Z,99113.44
2019-02-17T03:15:06.356Z,99108.64
2019-02-17T03:17:35.730Z,99099.98
2019-02-17T03:20:05.276Z,99109.59
2019-02-17T03:22:34.533Z,99106.42
2019-02-17T03:25:03.953Z,99110.23
2019-02-17T03:27:33.253Z,99111.30
2019-02-17T03:30:05.357Z,99103.96
2019-02-17T03:32:33.628Z,99106.38
2019-02-17T03:35:02.909Z,99106.83
2019-02-17T03:37:32.191Z,99101.98
2019-02-17T03:40:01.444Z,99111.67
2019-02-17T03:42:30.703Z,99108.41
2019-02-17T03:45:00.000Z,99105.20
2019-02-17T03:47:29.266Z,99103.09
2019-02-17T03:49:58.565Z,99094.45
2019-02-17T03:52:27.823Z,99106.68
2019-02-17T03:54:57.077Z,99102.08
2019-02-17T03:57:26.345Z,99099.86
2019-02-17T03:59:55.602Z,99100.11
2019-02-17T04:02:24.905Z,99101.23
2019-02-17T04:04:54.212Z,99098.76
2019-02-17T04:07:23.630Z,99100.16
2019-02-17T04:09:53.096Z,99102.28
2019-02-17T04:12:22.355Z,99099.83
2019-02-17T04:14:51.644Z,99102.26
2019-02-17T04:17:20.910Z,99102.80
2019-02-17T04:19:50.174Z,99098.24
2019-02-17T04:22:19.441Z,99105.15
2019-02-17T04:24:48.704Z,99094.06
2019-02-17T04:27:17.985Z,99100.02
2019-02-17T04:29:47.261Z,99097.06
2019-02-17T04:32:16.557Z,99099.75
2019-02-17T04:34:45.827Z,99103.79
2019-02-17T04:37:15.106Z,99100.18
2019-02-17T04:39:44.384Z,99101.89
2019-02-17T04:42:13.646Z,99095.00
2019-02-17T04:44:42.925Z,99105.39
2019-02-17T04:47:12.234Z,99099.20
2019-02-17T04:49:41.498Z,99106.24
2019-02-17T04:52:10.804Z,99100.27
2019-02-17T04:54:40.058Z,99103.23
2019-02-17T04:57:09.315Z,99102.17
2019-02-17T04:59:38.645Z,99103.52
2019-02-17T05:02:07.901Z,99100.55
2019-02-17T05:04:37.154Z,99091.93
2019-02-17T05:07:06.428Z,99095.41
2019-02-17T05:09:35.720Z,99094.81
2019-02-17T05:12:05.069Z,99093.23
2019-02-17T05:14:35.806Z,99095.92
2019-02-17T05:17:05.193Z,99091.93
2019-02-17T05:19:34.451Z,99092.75
2019-02-17T05:22:03.732Z,99092.24
2019-02-17T05:24:33.029Z,99094.30
2019-02-17T05:27:02.284Z,99092.67
2019-02-17T05:29:31.549Z,99092.75
2019-02-17T05:32:00.808Z,99095.72
2019-02-17T05:34:30.101Z,99094.89
2019-02-17T05:36:59.389Z,99103.43
2019-02-17T05:39:28.675Z,99103.23
2019-02-17T05:41:57.933Z,99097.52
2019-02-17T05:44:27.221Z,99092.12
2019-02-17T05:46:56.481Z,99094.00
2019-02-17T05:49:25.756Z,99099.86
2019-02-17T05:51:55.009Z,99094.98
2019-02-17T05:54:24.279Z,99093.10
2019-02-17T05:56:53.527Z,99096.34
2019-02-17T05:59:22.818Z,99093.41
2019-02-17T06:01:52.071Z,99096.90
2019-02-17T06:04:21.392Z,99100.09
2019-02-17T06:06:50.656Z,99101.70
2019-02-17T06:09:19.927Z,99106.25
2019-02-17T06:11:49.231Z,99106.60
2019-02-17T06:14:18.525Z,99107.59
2019-02-17T06:16:47.777Z,99100.61
2019-02-17T06:19:17.793Z,99107.38
2019-02-17T06:21:47.301Z,99110.55
2019-02-17T06:24:16.580Z,99111.85
2019-02-17T06:26:45.840Z,99122.49
2019-02-17T06:29:15.121Z,99120.62
2019-02-17T06:31:44.395Z,99118.41
2019-02-17T06:34:13.748Z,99131.67
2019-02-17T06:36:43.020Z,99121.65
2019-02-17T06:39:12.292Z,99133.66
2019-02-17T06:41:41.575Z,99132.95
2019-02-17T06:44:10.831Z,99128.69
2019-02-17T06:46:44.955Z,99143.20
2019-02-17T06:49:14.232Z,99134.97
2019-02-17T06:51:43.490Z,99139.27
2019-02-17T06:54:12.796Z,99137.42
2019-02-17T06:57:03.836Z,99142.86
2019-02-17T06:59:33.269Z,99144.92
2019-02-17T07:02:02.545Z,99146.17
2019-02-17T07:04:44.782Z,99143.72
2019-02-17T07:07:14.167Z,99147.61
2019-02-17T07:09:43.445Z,99147.22
2019-02-17T07:12:12.712Z,99141.91
2019-02-17T07:14:43.568Z,99143.19
2019-02-17T07:17:12.832Z,99146.55
2019-02-17T07:19:42.160Z,99151.59
2019-02-17T07:22:11.438Z,99145.78
2019-02-17T07:24:40.687Z,99143.89
2019-02-17T07:27:09.979Z,99142.28
2019-02-17T07:29:39.249Z,99142.68
2019-02-17T07:32:08.519Z,99142.77
2019-02-17T07:34:37.800Z,99133.13
2019-02-17T07:37:07.055Z,99141.27
2019-02-17T07:39:36.396Z,99135.85
2019-02-17T07:42:05.653Z,99141.86
2019-02-17T07:44:34.957Z,99135.38
2019-02-17T07:47:05.688Z,99130.03
2019-02-17T07:49:34.982Z,99133.30
2019-02-17T07:52:04.298Z,99133.88
2019-02-17T07:54:34.163Z,99136.91
2019-02-17T07:57:03.436Z,99137.14
2019-02-17T07:59:33.163Z,99135.28
2019-02-17T08:02:02.449Z,99132.67
2019-02-17T08:04:31.758Z,99138.33
2019-02-17T08:07:02.765Z,99130.00
2019-02-17T08:09:32.221Z,99134.36
2019-02-17T08:12:01.556Z,99132.99
2019-02-17T08:14:32.948Z,99131.39
2019-02-17T08:17:02.297Z,99133.53
2019-02-17T08:19:31.586Z,99130.02
2019-02-17T08:22:01.083Z,99122.17
2019-02-17T08:24:30.373Z,99122.47
2019-02-17T08:26:59.621Z,99124.28
2019-02-17T08:29:28.916Z,99118.89
2019-02-17T08:31:58.493Z,99107.02
2019-02-17T08:34:27.733Z,99108.45
2019-02-17T08:36:57.051Z,99106.19
2019-02-17T08:39:26.339Z,99110.59
2019-02-17T08:41:55.600Z,99098.84
2019-02-17T08:44:25.872Z,99101.67
2019-02-17T08:46:55.150Z,99098.38
2019-02-17T08:49:26.220Z,99092.70
2019-02-17T08:51:55.510Z,99095.21
2019-02-17T08:54:26.717Z,99096.98
2019-02-17T08:56:56.342Z,99089.89
2019-02-17T08:59:27.370Z,99091.88
2019-02-17T09:02:05.691Z,99090.23
2019-02-17T09:04:27.818Z,99084.12
2019-02-17T09:06:57.097Z,99084.91
2019-02-17T09:09:27.982Z,99082.83
2019-02-17T09:11:58.052Z,99079.14
2019-02-17T09:14:28.548Z,99072.81
2019-02-17T09:16:57.809Z,99076.39
2019-02-17T09:19:27.120Z,99073.09
2019-02-17T09:21:56.368Z,99072.48
2019-02-17T09:24:25.677Z,99072.15
2019-02-17T09:26:54.969Z,99068.70
2019-02-17T09:29:28.184Z,99073.02
2019-02-17T09:31:59.339Z,99072.86
2019-02-17T09:34:28.525Z,99066.67
2019-02-17T09:36:57.909Z,99064.83
2019-02-17T09:39:27.171Z,99060.49
2019-02-17T09:41:56.503Z,99061.40
2019-02-17T09:44:25.768Z,99058.34
2019-02-17T09:46:55.016Z,99056.56
2019-02-17T09:49:25.749Z,99055.42
2019-02-17T09:51:55.010Z,99049.23
2019-02-17T09:54:24.285Z,99058.01
2019-02-17T09:56:55.250Z,99052.10
2019-02-17T09:59:24.524Z,99051.88
2019-02-17T10:01:53.818Z,99058.34
2019-02-17T10:04:23.157Z,99048.73
2019-02-17T10:06:52.464Z,99052.38
2019-02-17T10:09:21.743Z,99046.52
2019-02-17T10:11:51.086Z,99052.75
2019-02-17T10:14:20.391Z,99052.52
2019-02-17T10:16:49.654Z,99055.31
2019-02-17T10:19:18.962Z,99058.36
2019-02-17T10:21:48.334Z,99052.20
2019-02-17T10:24:17.770Z,99055.95
2019-02-17T10:26:47.035Z,99053.94
2019-02-17T10:29:16.290Z,99058.28
2019-02-17T10:31:45.655Z,99058.25
2019-02-17T10:34:14.983Z,99058.67
2019-02-17T10:36:44.279Z,99057.53
2019-02-17T10:39:14.643Z,99060.41
2019-02-17T10:41:43.986Z,99066.66
2019-02-17T10:44:13.246Z,99054.69
2019-02-17T10:46:42.542Z,99060.12
2019-02-17T10:49:11.946Z,99063.25
2019-02-17T10:51:42.170Z,99060.69
2019-02-17T10:54:11.449Z,99057.69
2019-02-17T10:56:40.754Z,99051.27
2019-02-17T10:59:10.109Z,99049.11
2019-02-17T11:01:39.461Z,99048.43
2019-02-17T11:04:12.136Z,99038.27
2019-02-17T11:06:41.478Z,99042.02
2019-02-17T11:09:21.824Z,99033.42
2019-02-17T11:11:51.867Z,99023.71
2019-02-17T11:14:22.631Z,99017.27
2019-02-17T11:16:52.492Z,99012.09
2019-02-17T11:19:21.761Z,99014.97
2019-02-17T11:21:51.080Z,99015.59
2019-02-17T11:24:20.526Z,99005.44
2019-02-17T11:26:49.867Z,99002.50
2019-02-17T11:29:19.215Z,98996.84
2019-02-17T11:31:48.534Z,98993.67
2019-02-17T11:34:17.909Z,98987.01
2019-02-17T11:36:47.175Z,98977.54
2019-02-17T11:39:19.204Z,98973.63
2019-02-17T11:41:48.810Z,98971.80
2019-02-17T11:44:18.206Z,98972.14
2019-02-17T11:46:47.518Z,98969.66
2019-02-17T11:49:16.836Z,98963.13
2019-02-17T11:51:46.075Z,98969.09
2019-02-17T11:54:15.467Z,98963.61
2019-02-17T11:56:45.013Z,98964.15
2019-02-17T11:59:14.294Z,98957.87
2019-02-17T12:01:43.621Z,98951.56
2019-02-17T12:04:14.716Z,98956.97
2019-02-17T12:06:44.013Z,98951.00
2019-02-17T12:09:13.485Z,98957.04
2019-02-17T12:11:42.763Z,98954.28
2019-02-17T12:14:13.141Z,98949.03
2019-02-17T12:16:42.391Z,98947.43
2019-02-17T12:19:11.694Z,98947.38
2019-02-17T12:21:58.911Z,98944.01
2019-02-17T12:24:50.007Z,98949.03
2019-02-17T12:27:33.085Z,98945.54
2019-02-17T12:30:08.623Z,98946.23
2019-02-17T12:32:37.926Z,98941.24
2019-02-17T12:35:07.940Z,98941.19
2019-02-17T12:37:38.341Z,98926.75
2019-02-17T12:40:10.849Z,98925.92
2019-02-17T12:42:40.183Z,98923.36
2019-02-17T12:45:17.313Z,98929.45
2019-02-17T12:47:43.973Z,98924.51
2019-02-17T12:50:13.777Z,98919.92
2019-02-17T12:52:46.980Z,98917.17
2019-02-17T12:55:14.103Z,98915.92
2019-02-17T12:57:43.384Z,98913.77
2019-02-17T13:00:15.849Z,98903.67
2019-02-17T13:02:45.121Z,98899.86
2019-02-17T13:05:14.491Z,98893.91
2019-02-17T13:07:45.672Z,98906.78
2019-02-17T13:10:17.653Z,98897.20
2019-02-17T13:12:47.058Z,98901.43
2019-02-17T13:15:16.361Z,98896.33
2019-02-17T13:17:45.672Z,98887.52
2019-02-17T13:20:14.793Z,98880.44
2019-02-17T13:22:44.128Z,98885.28
2019-02-17T13:25:13.814Z,98883.75
2019-02-17T13:27:43.151Z,98874.70
2019-02-17T13:30:15.605Z,98874.20
2019-02-17T13:32:45.042Z,98871.76
2019-02-17T13:35:14.339Z,98871.97
2019-02-17T13:37:43.615Z,98872.84
2019-02-17T13:40:13.567Z,98865.83
2019-02-17T13:42:42.857Z,98865.83
2019-02-17T13:45:13.216Z,98864.23
2019-02-17T13:47:42.504Z,98865.30
2019-02-17T13:50:13.219Z,98863.04
2019-02-17T13:52:42.500Z,98864.28
2019-02-17T13:55:12.237Z,98870.43
2019-02-17T13:57:41.553Z,98860.12
2019-02-17T14:00:13.301Z,98858.92
2019-02-17T14:02:42.732Z,98863.30
2019-02-17T14:05:12.116Z,98859.94
2019-02-17T14:07:42.886Z,98857.31
2019-02-17T14:10:12.328Z,98853.30
2019-02-17T14:12:41.612Z,98855.19
2019-02-17T14:15:12.833Z,98848.41
2019-02-17T14:17:42.177Z,98856.05
2019-02-17T14:20:11.839Z,98850.77
2019-02-17T14:22:41.124Z,98851.86
2019-02-17T14:25:11.499Z,98849.55
2019-02-17T14:27:40.911Z,98847.00
2019-02-17T14:30:11.628Z,98838.84
2019-02-17T14:32:40.974Z,98839.05
2019-02-17T14:35:10.628Z,98831.58
2019-02-17T14:37:39.924Z,98834.77
2019-02-17T14:40:09.428Z,98825.22
2019-02-17T14:42:38.682Z,98824.77
2019-02-17T14:45:08.490Z,98827.53
2019-02-17T14:47:37.760Z,98827.03
2019-02-17T14:50:07.336Z,98826.86
2019-02-17T14:52:36.604Z,98823.59
2019-02-17T14:55:05.916Z,98827.46
2019-02-17T14:57:35.209Z,98825.72
2019-02-17T15:00:05.213Z,98817.55
2019-02-17T15:02:34.476Z,98807.33
2019-02-17T15:05:03.791Z,98817.19
2019-02-17T15:07:33.056Z,98812.77
2019-02-17T15:10:02.361Z,98815.70
2019-02-17T15:12:31.651Z,98816.38
2019-02-17T15:15:00.919Z,98808.44
2019-02-17T15:17:32.331Z,98808.84
2019-02-17T15:20:01.601Z,98809.81
2019-02-17T15:22:30.888Z,98804.93
2019-02-17T15:25:00.299Z,98804.37
2019-02-17T15:27:29.573Z,98796.91
2019-02-17T15:30:01.867Z,98801.19
2019-02-17T15:32:31.364Z,98804.58
2019-02-17T15:35:01.048Z,98798.59
2019-02-17T15:37:30.648Z,98796.12
2019-02-17T15:40:01.539Z,98800.90
2019-02-17T15:42:31.004Z,98794.80
2019-02-17T15:45:02.388Z,98792.47
2019-02-17T15:47:33.229Z,98784.09
2019-02-17T15:50:07.677Z,98779.75
2019-02-17T15:52:36.994Z,98771.50
2019-02-17T15:55:07.584Z,98780.38
2019-02-17T15:57:36.899Z,98774.48
2019-02-17T16:00:08.322Z,98777.28
2019-02-17T16:02:37.575Z,98777.86
2019-02-17T16:05:07.010Z,98774.84
2019-02-17T16:07:36.281Z,98772.18
2019-02-17T16:10:07.209Z,98773.73
2019-02-17T16:12:36.501Z,98777.53
2019-02-17T16:15:07.531Z,98775.11
2019-02-17T16:17:36.823Z,98781.17
2019-02-17T16:20:07.807Z,98773.11
2019-02-17T16:22:37.189Z,98775.79
2019-02-17T16:25:06.610Z,98775.34
2019-02-17T16:27:37.079Z,98776.65
2019-02-17T16:30:08.055Z,98776.48
2019-02-17T16:32:37.328Z,98784.27
2019-02-17T16:35:07.131Z,98772.93
2019-02-17T16:37:36.485Z,98783.45
2019-02-17T16:40:06.687Z,98778.73
2019-02-17T16:42:36.002Z,98778.91
2019-02-17T16:45:05.589Z,98774.67
2019-02-17T16:47:34.921Z,98776.04
2019-02-17T16:50:04.786Z,98778.17
2019-02-17T16:52:34.369Z,98788.34
2019-02-17T16:55:03.671Z,98789.89
2019-02-17T16:57:32.992Z,98794.72
2019-02-17T17:00:02.375Z,98794.75
2019-02-17T17:02:31.647Z,98791.80
2019-02-17T17:05:01.406Z,98799.32
2019-02-17T17:07:30.813Z,98799.11
2019-02-17T17:10:00.221Z,98799.78
2019-02-17T17:12:29.709Z,98802.75
2019-02-17T17:14:59.055Z,98803.38
2019-02-17T17:17:28.371Z,98808.37
2019-02-17T17:19:57.656Z,98805.84
2019-02-17T17:22:26.951Z,98811.83
2019-02-17T17:24:56.247Z,98814.89
2019-02-17T17:27:25.547Z,98814.42
2019-02-17T17:29:54.852Z,98803.05
2019-02-17T17:32:24.215Z,98810.56
2019-02-17T17:34:58.875Z,98803.98
2019-02-17T17:37:24.530Z,98808.02
2019-02-17T17:39:53.834Z,98802.36
2019-02-17T17:42:23.117Z,98807.03
2019-02-17T17:44:52.449Z,98807.19
2019-02-17T17:47:21.756Z,98806.58
2019-02-17T17:49:51.049Z,98801.78
2019-02-17T17:52:20.341Z,98806.39
2019-02-17T17:54:49.649Z,98808.41
2019-02-17T17:57:19.034Z,98806.39
2019-02-17T17:59:48.511Z,98806.30
2019-02-17T18:02:17.748Z,98809.38
2019-02-17T18:04:48.499Z,98804.99
2019-02-17T18:07:17.796Z,98811.17
2019-02-17T18:09:47.065Z,98807.33
2019-02-17T18:12:16.409Z,98806.29
2019-02-17T18:14:45.976Z,98809.80
2019-02-17T18:17:15.350Z,98808.43
2019-02-17T18:19:44.760Z,98810.86
2019-02-17T18:22:14.058Z,98806.12
2019-02-17T18:24:43.384Z,98808.22
2019-02-17T18:27:12.668Z,98804.53
2019-02-17T18:29:41.974Z,98806.94
2019-02-17T18:32:11.314Z,98803.56
2019-02-17T18:34:40.580Z,98803.73
2019-02-17T18:37:09.914Z,98805.08
2019-02-17T18:39:39.196Z,98801.75
2019-02-17T18:42:08.547Z,98800.48
2019-02-17T18:44:37.845Z,98798.69
2019-02-17T18:47:07.205Z,98798.45
2019-02-17T18:49:37.531Z,98796.28
2019-02-17T18:52:08.226Z,98802.78
2019-02-17T18:54:39.241Z,98797.92
2019-02-17T18:57:09.742Z,98804.66
2019-02-17T18:59:39.835Z,98804.69
2019-02-17T19:02:09.085Z,98808.12
2019-02-17T19:04:38.460Z,98805.48
2019-02-17T19:07:07.995Z,98804.37
2019-02-17T19:09:37.294Z,98806.28
2019-02-17T19:12:06.889Z,98806.38
2019-02-17T19:14:36.279Z,98804.45
2019-02-17T19:17:05.591Z,98800.94
2019-02-17T19:19:35.298Z,98802.78
2019-02-17T19:22:06.211Z,98804.93
2019-02-17T19:24:36.571Z,98802.70
2019-02-17T19:27:06.299Z,98796.73
2019-02-17T19:29:35.556Z,98797.22
2019-02-17T19:32:05.381Z,98797.75
2019-02-17T19:34:34.853Z,98795.27
2019-02-17T19:37:04.353Z,98797.16
2019-02-17T19:39:33.915Z,98792.97
2019-02-17T19:42:03.477Z,98793.62
2019-02-17T19:44:34.163Z,98785.47
2019-02-17T19:47:03.753Z,98790.17
2019-02-17T19:49:33.824Z,98786.86
2019-02-17T19:52:03.390Z,98793.11
2019-02-17T19:54:32.816Z,98798.30
2019-02-17T19:57:02.377Z,98794.40
2019-02-17T19:59:32.184Z,98790.06
2019-02-17T20:02:01.871Z,98792.55
2019-02-17T20:04:51.442Z,98797.89
2019-02-17T20:07:21.135Z,98791.02
2019-02-17T20:09:52.277Z,98796.58
2019-02-17T20:12:21.938Z,98792.10
2019-02-17T20:14:51.563Z,98793.39
2019-02-17T20:17:22.407Z,98796.09
2019-02-17T20:19:53.235Z,98796.78
2019-02-17T20:22:24.582Z,98798.44
2019-02-17T20:24:54.286Z,98798.35
2019-02-17T20:27:24.031Z,98796.72
2019-02-17T20:29:53.684Z,98804.23
2019-02-17T20:32:23.892Z,98798.48
2019-02-17T20:34:53.830Z,98794.83
2019-02-17T20:37:25.369Z,98798.75
2019-02-17T20:39:55.355Z,98805.75
2019-02-17T20:42:26.052Z,98810.19
2019-02-17T20:44:58.861Z,98808.48
2019-02-17T20:47:28.577Z,98809.44
2019-02-17T20:49:58.093Z,98807.33
2019-02-17T20:52:27.590Z,98813.38
2019-02-17T20:54:57.586Z,98813.06
2019-02-17T20:57:27.345Z,98810.36
2019-02-17T20:59:57.587Z,98812.34
2019-02-17T21:02:27.254Z,98812.92
2019-02-17T21:04:58.374Z,98810.86
2019-02-17T21:07:30.200Z,98810.83
2019-02-17T21:10:01.298Z,98814.75
2019-02-17T21:12:30.633Z,98810.11
2019-02-17T21:15:01.079Z,98806.80
2019-02-17T21:17:30.577Z,98807.45
2019-02-17T21:20:01.256Z,98807.56
2019-02-17T21:22:31.911Z,98805.75
2019-02-17T21:25:01.866Z,98800.52
2019-02-17T21:27:31.323Z,98807.98
2019-02-17T21:30:04.336Z,98801.52
2019-02-17T21:32:34.199Z,98802.34
2019-02-17T21:35:03.545Z,98795.22
2019-02-17T21:37:33.021Z,98805.67
2019-02-17T21:40:02.468Z,98796.73
2019-02-17T21:42:31.952Z,98799.18
2019-02-17T21:45:02.236Z,98804.39
2019-02-17T21:47:31.687Z,98798.62
2019-02-17T21:50:03.562Z,98800.59
2019-02-17T21:52:33.909Z,98803.23
2019-02-17T21:55:03.305Z,98801.84
2019-02-17T21:57:32.735Z,98803.60
2019-02-17T22:00:02.116Z,98798.25
2019-02-17T22:02:31.820Z,98805.33
2019-02-17T22:05:01.111Z,98802.58
2019-02-17T22:07:30.930Z,98805.42
2019-02-17T22:10:00.976Z,98799.11
2019-02-17T22:12:32.490Z,98797.37
2019-02-17T22:15:04.376Z,98793.22
2019-02-17T22:17:33.627Z,98791.02
2019-02-17T22:20:02.930Z,98792.03
2019-02-17T22:22:32.555Z,98792.95
2019-02-17T22:25:01.800Z,98800.23
2019-02-17T22:27:31.910Z,98794.69
2019-02-17T22:30:04.076Z,98796.80
2019-02-17T22:32:33.439Z,98798.75
2019-02-17T22:35:02.769Z,98792.71
2019-02-17T22:37:32.062Z,98799.52
2019-02-17T22:40:01.439Z,98796.94
2019-02-17T22:42:30.734Z,98790.38
2019-02-17T22:45:00.127Z,98798.92
2019-02-17T22:47:30.049Z,98798.80
2019-02-17T22:49:59.798Z,98795.44
2019-02-17T22:52:29.085Z,98804.14
2019-02-17T22:54:58.614Z,98799.70
2019-02-17T22:57:27.891Z,98794.92
2019-02-17T22:59:57.145Z,98790.27
2019-02-17T23:02:26.851Z,98789.47
2019-02-17T23:04:56.102Z,98796.70
2019-02-17T23:07:25.623Z,98792.04
2019-02-17T23:09:54.885Z,98787.23
2019-02-17T23:12:24.796Z,98790.69
2019-02-17T23:14:54.065Z,98788.62
2019-02-17T23:17:23.369Z,98784.09
2019-02-17T23:19:52.658Z,98786.28
2019-02-17T23:22:21.968Z,98786.52
2019-02-17T23:24:51.243Z,98783.41
2019-02-17T23:27:20.624Z,98790.61
2019-02-17T23:29:49.940Z,98786.66
2019-02-17T23:32:19.226Z,98785.58
2019-02-17T23:34:48.483Z,98785.86
2019-02-17T23:37:18.566Z,98789.09
2019-02-17T23:39:47.811Z,98783.03
2019-02-17T23:42:16.939Z,98786.41
2019-02-17T23:44:46.229Z,98788.24
2019-02-17T23:47:15.486Z,98785.91
2019-02-17T23:49:44.767Z,98789.14
2019-02-17T23:52:14.050Z,98791.80
2019-02-17T23:54:43.350Z,98779.66
2019-02-17T23:57:12.615Z,98786.30
2019-02-17T23:59:41.872Z,98779.30
